createdAt,value
2019-05-01T00:01:54.819Z,81.44
2019-05-01T00:06:54.836Z,82.83
2019-05-01T00:11:53.990Z,85.87
2019-05-01T00:16:53.834Z,83.26
2019-05-01T00:21:53.013Z,84.77
2019-05-01T00:26:52.850Z,85.70
2019-05-01T00:31:52.833Z,84.88
2019-05-01T00:36:52.884Z,82.79
2019-05-01T00:41:52.840Z,84.85
2019-05-01T00:46:52.167Z,82.05
2019-05-01T00:51:53.315Z,83.19
2019-05-01T00:56:52.838Z,81.99
2019-05-01T01:01:52.898Z,82.39
2019-05-01T01:06:53.057Z,84.83
2019-05-01T01:11:52.870Z,84.83
2019-05-01T01:16:53.020Z,86.31
2019-05-01T01:21:51.849Z,85.19
2019-05-01T01:26:52.896Z,82.62
2019-05-01T01:31:52.835Z,83.10
2019-05-01T01:36:52.188Z,84.97
2019-05-01T01:41:52.053Z,84.90
2019-05-01T01:46:52.868Z,82.46
2019-05-01T01:51:52.988Z,84.72
2019-05-01T01:56:52.790Z,83.19
2019-05-01T02:06:54.860Z,87.58
2019-05-01T02:11:53.803Z,82.99
2019-05-01T02:16:54.151Z,86.08
2019-05-01T02:21:53.843Z,84.04
2019-05-01T02:26:52.882Z,82.57
2019-05-01T02:31:52.207Z,86.41
2019-05-01T02:36:50.894Z,87.55
2019-05-01T02:41:50.750Z,87.36
2019-05-01T02:46:49.899Z,82.37
2019-05-01T02:51:49.868Z,85.40
2019-05-01T02:56:48.921Z,87.38
2019-05-01T03:01:48.381Z,86.41
2019-05-01T03:06:46.962Z,85.27
2019-05-01T03:11:47.121Z,85.04
2019-05-01T03:16:46.882Z,89.14
2019-05-01T03:21:46.985Z,89.92
2019-05-01T03:26:46.038Z,90.41
2019-05-01T03:32:13.303Z,89.51
2019-05-01T03:36:45.859Z,88.79
2019-05-01T03:41:45.136Z,88.42
2019-05-01T03:46:44.115Z,88.16
2019-05-01T03:51:44.092Z,87.82
2019-05-01T03:56:43.059Z,86.71
2019-05-01T04:01:42.836Z,85.89
2019-05-01T04:06:42.903Z,86.52
2019-05-01T04:11:42.914Z,87.12
2019-05-01T04:21:41.870Z,87.36
2019-05-01T04:26:40.861Z,87.21
2019-05-01T04:31:40.017Z,86.20
2019-05-01T04:36:40.241Z,85.94
2019-05-01T04:41:40.084Z,86.25
2019-05-01T04:46:39.875Z,85.55
2019-05-01T04:51:39.173Z,85.58
2019-05-01T04:56:38.326Z,85.03
2019-05-01T05:01:39.139Z,85.59
2019-05-01T05:06:37.876Z,85.73
2019-05-01T05:11:37.006Z,85.90
2019-05-01T05:16:37.896Z,86.18
2019-05-01T05:21:37.868Z,86.03
2019-05-01T05:26:36.917Z,86.05
2019-05-01T05:31:35.896Z,85.48
2019-05-01T05:36:34.890Z,85.36
2019-05-01T05:41:36.020Z,85.17
2019-05-01T05:46:35.981Z,85.81
2019-05-01T05:51:35.979Z,84.99
2019-05-01T05:56:35.119Z,85.28
2019-05-01T06:01:35.917Z,86.05
2019-05-01T06:06:37.302Z,85.38
2019-05-01T06:11:35.889Z,85.88
2019-05-01T06:16:35.877Z,84.95
2019-05-01T06:21:35.924Z,85.40
2019-05-01T06:26:37.347Z,85.87
2019-05-01T06:31:34.886Z,85.93
2019-05-01T06:36:35.966Z,85.75
2019-05-01T06:41:42.161Z,85.80
2019-05-01T06:46:35.344Z,86.20
2019-05-01T06:51:33.919Z,85.96
2019-05-01T06:56:32.980Z,85.46
2019-05-01T07:01:32.976Z,85.53
2019-05-01T07:06:33.051Z,86.30
2019-05-01T07:11:32.253Z,86.56
2019-05-01T07:16:33.341Z,86.75
2019-05-01T07:21:32.722Z,85.82
2019-05-01T07:26:30.928Z,85.30
2019-05-01T07:31:32.611Z,85.84
2019-05-01T07:36:31.149Z,85.81
2019-05-01T07:41:34.050Z,86.36
2019-05-01T07:46:30.946Z,85.67
2019-05-01T07:51:31.974Z,85.20
2019-05-01T07:56:32.092Z,84.71
2019-05-01T08:01:32.896Z,84.26
2019-05-01T08:06:32.573Z,83.53
2019-05-01T08:11:32.364Z,84.28
2019-05-01T08:16:32.321Z,84.19
2019-05-01T08:21:31.325Z,84.08
2019-05-01T08:26:30.439Z,83.54
2019-05-01T08:31:31.314Z,84.14
2019-05-01T08:36:30.311Z,85.00
2019-05-01T08:41:31.879Z,83.27
2019-05-01T08:46:29.288Z,83.27
2019-05-01T08:51:30.002Z,83.61
2019-05-01T08:56:29.330Z,82.80
2019-05-01T09:01:29.311Z,82.70
2019-05-01T09:06:34.792Z,82.68
2019-05-01T09:11:31.735Z,83.06
2019-05-01T09:16:28.331Z,82.95
2019-05-01T09:21:27.327Z,82.12
2019-05-01T09:26:26.391Z,80.98
2019-05-01T09:31:26.371Z,83.32
2019-05-01T09:36:26.361Z,81.09
2019-05-01T09:41:37.635Z,81.65
2019-05-01T09:46:26.504Z,80.76
2019-05-01T09:51:27.553Z,80.18
2019-05-01T09:56:27.234Z,79.16
2019-05-01T10:01:31.677Z,79.88
2019-05-01T10:06:27.347Z,79.49
2019-05-01T10:11:27.359Z,79.25
2019-05-01T10:16:27.347Z,78.41
2019-05-01T10:21:27.118Z,77.96
2019-05-01T10:26:25.787Z,77.76
2019-05-01T10:31:25.411Z,77.00
2019-05-01T10:36:25.323Z,76.65
2019-05-01T10:41:24.596Z,76.37
2019-05-01T10:46:25.396Z,75.01
2019-05-01T10:51:24.529Z,74.25
2019-05-01T10:56:24.326Z,75.36
2019-05-01T11:01:23.457Z,73.05
2019-05-01T11:06:24.310Z,72.99
2019-05-01T11:11:23.262Z,73.09
2019-05-01T11:21:22.271Z,71.39
2019-05-01T11:26:21.387Z,72.41
2019-05-01T11:31:20.456Z,70.23
2019-05-01T11:36:21.501Z,70.73
2019-05-01T11:41:21.332Z,69.76
2019-05-01T11:46:22.432Z,70.42
2019-05-01T11:56:23.640Z,69.73
2019-05-01T12:01:22.560Z,68.37
2019-05-01T12:06:23.265Z,68.58
2019-05-01T12:11:22.340Z,69.38
2019-05-01T12:16:21.582Z,68.90
2019-05-01T12:21:21.502Z,67.85
2019-05-01T12:26:20.706Z,67.35
2019-05-01T12:36:20.732Z,68.23
2019-05-01T12:41:20.588Z,67.90
2019-05-01T12:46:20.352Z,69.92
2019-05-01T12:51:20.569Z,69.76
2019-05-01T12:56:20.329Z,69.72
2019-05-01T13:01:20.340Z,69.76
2019-05-01T13:06:20.453Z,67.55
2019-05-01T13:11:20.306Z,68.65
2019-05-01T13:16:19.530Z,66.68
2019-05-01T13:21:18.661Z,66.69
2019-05-01T13:26:17.635Z,66.95
2019-05-01T13:31:18.304Z,67.24
2019-05-01T13:36:18.379Z,66.78
2019-05-01T13:41:18.297Z,65.84
2019-05-01T13:46:17.595Z,65.70
2019-05-01T13:51:17.280Z,66.14
2019-05-01T13:56:16.674Z,68.00
2019-05-01T14:01:15.827Z,66.09
2019-05-01T14:06:14.705Z,67.32
2019-05-01T14:11:14.303Z,65.70
2019-05-01T14:16:14.538Z,64.55
2019-05-01T14:21:13.559Z,61.22
2019-05-01T14:26:13.334Z,61.99
2019-05-01T14:31:13.294Z,63.60
2019-05-01T14:36:13.302Z,63.37
2019-05-01T14:41:14.337Z,65.74
2019-05-01T14:46:13.569Z,62.79
2019-05-01T14:51:13.246Z,61.19
2019-05-01T14:56:12.704Z,62.44
2019-05-01T15:01:13.316Z,62.67
2019-05-01T15:06:13.259Z,63.11
2019-05-01T15:11:13.309Z,62.70
2019-05-01T15:16:12.274Z,61.60
2019-05-01T15:21:13.234Z,61.72
2019-05-01T15:31:14.244Z,61.09
2019-05-01T15:36:13.498Z,60.27
2019-05-01T15:41:13.282Z,61.79
2019-05-01T15:46:13.307Z,61.33
2019-05-01T15:51:12.226Z,61.68
2019-05-01T16:01:11.298Z,61.52
2019-05-01T16:06:10.282Z,61.03
2019-05-01T16:11:10.237Z,61.88
2019-05-01T16:16:10.252Z,62.59
2019-05-01T16:21:10.469Z,60.35
2019-05-01T16:26:11.132Z,59.04
2019-05-01T16:31:09.252Z,58.18
2019-05-01T16:36:08.379Z,57.93
2019-05-01T16:41:08.470Z,57.39
2019-05-01T16:46:08.218Z,57.74
2019-05-01T16:51:08.259Z,57.81
2019-05-01T16:56:07.943Z,55.33
2019-05-01T17:01:07.300Z,58.47
2019-05-01T17:06:05.307Z,59.39
2019-05-01T17:11:04.623Z,59.43
2019-05-01T17:16:04.410Z,60.88
2019-05-01T17:21:03.356Z,61.59
2019-05-01T17:26:02.823Z,63.42
2019-05-01T17:31:02.302Z,62.66
2019-05-01T17:36:02.293Z,62.85
2019-05-01T17:41:02.201Z,64.88
2019-05-01T17:46:05.852Z,64.51
2019-05-01T17:51:02.338Z,65.13
2019-05-01T17:56:03.084Z,65.30
2019-05-01T18:01:00.838Z,65.60
2019-05-01T18:06:01.432Z,65.67
2019-05-01T18:10:59.385Z,65.63
2019-05-01T18:15:59.251Z,66.14
2019-05-01T18:20:59.169Z,66.48
2019-05-01T18:30:59.191Z,68.66
2019-05-01T18:35:59.277Z,69.52
2019-05-01T18:40:58.557Z,69.87
2019-05-01T18:45:58.200Z,70.79
2019-05-01T18:50:57.391Z,70.90
2019-05-01T18:56:01.397Z,71.51
2019-05-01T19:00:57.233Z,72.67
2019-05-01T19:05:57.285Z,73.55
2019-05-01T19:10:56.249Z,72.89
2019-05-01T19:15:55.438Z,73.77
2019-05-01T19:20:59.856Z,75.61
2019-05-01T19:25:56.368Z,76.40
2019-05-01T19:30:53.272Z,75.26
2019-05-01T19:35:52.704Z,77.93
2019-05-01T19:40:52.301Z,75.75
2019-05-01T19:45:51.802Z,76.92
2019-05-01T19:50:51.229Z,77.96
2019-05-01T19:55:51.351Z,77.76
2019-05-01T20:00:50.706Z,79.87
2019-05-01T20:05:51.243Z,78.83
2019-05-01T20:10:51.555Z,81.19
2019-05-01T20:15:51.183Z,79.43
2019-05-01T20:20:50.526Z,78.85
2019-05-01T20:30:49.628Z,82.18
2019-05-01T20:35:50.328Z,83.19
2019-05-01T20:40:49.282Z,81.00
2019-05-01T20:45:49.319Z,82.77
2019-05-01T20:50:48.301Z,80.35
2019-05-01T20:55:48.530Z,82.92
2019-05-01T21:00:48.053Z,84.99
2019-05-01T21:05:48.282Z,81.71
2019-05-01T21:10:50.586Z,83.92
2019-05-01T21:15:48.352Z,82.38
2019-05-01T21:20:47.185Z,83.21
2019-05-01T21:25:47.353Z,84.04
2019-05-01T21:30:47.571Z,83.67
2019-05-01T21:40:46.690Z,83.02
2019-05-01T21:45:47.267Z,84.49
2019-05-01T21:50:47.537Z,82.96
2019-05-01T21:55:47.272Z,84.77
2019-05-01T22:00:47.230Z,83.22
2019-05-01T22:05:48.591Z,84.94
2019-05-01T22:10:52.198Z,82.32
2019-05-01T22:15:47.132Z,81.43
2019-05-01T22:20:46.354Z,84.86
2019-05-01T22:25:45.898Z,83.85
2019-05-01T22:30:46.451Z,84.07
2019-05-01T22:35:43.271Z,82.48
2019-05-01T22:40:42.235Z,85.74
2019-05-01T22:45:42.373Z,82.98
2019-05-01T22:50:41.695Z,82.06
2019-05-01T22:55:41.651Z,83.42
2019-05-01T23:00:41.213Z,83.14
2019-05-01T23:05:41.294Z,84.06
2019-05-01T23:10:47.018Z,84.16
2019-05-01T23:15:41.458Z,85.49
2019-05-01T23:20:41.299Z,86.17
2019-05-01T23:25:42.602Z,84.60
2019-05-01T23:30:41.278Z,84.37
2019-05-01T23:35:40.359Z,83.91
2019-05-01T23:40:39.634Z,85.22
2019-05-01T23:45:40.290Z,83.54
2019-05-01T23:50:41.289Z,82.51
